Time;durP1;ratioP1;P1;durP2;ratioP2;P2;SDS_P1;SDS_P2;PMS_P1;PMS_P2;Temp;Humidity;BMP_temperature;BMP_pressure;BME280_temperature;BME280_humidity;BME280_pressure;Samples;Min_cycle;Max_cycle;Signal;HPM_P1;HPM_P2
2022/08/26 00:02:18;;;;;;;;;;;;;;;24.68;51.90;100941.59;5143913;27;19930;-36
2022/08/26 00:04:46;;;;;;;;;;;;;;;24.69;51.88;100942.41;5144242;27;20273;-36
2022/08/26 00:07:11;;;;;;;;;;;;;;;24.68;51.82;100938.81;5139667;27;19924;-36
2022/08/26 00:09:37;;;;;;;;;;;;;;;24.69;51.81;100947.97;5146387;27;20351;-36
2022/08/26 00:12:05;;;;;;;;;;;;;;;24.69;51.83;100947.97;5144992;27;19931;-36
2022/08/26 00:14:31;;;;;;;;;;;;;;;24.69;51.78;100956.34;5142300;27;19968;-36
2022/08/26 00:16:57;;;;;;;;;;;;;;;24.67;51.78;100956.66;5144690;27;19924;-36
2022/08/26 00:19:22;;;;;;;;;;;;;;;24.68;51.84;100952.72;5126972;27;19923;-36
2022/08/26 00:21:48;;;;;;;;;;;;;;;24.68;51.86;100954.69;5144696;27;19924;-36
2022/08/26 00:24:15;;;;;;;;;;;;;;;24.67;51.90;100965.00;5144675;27;20321;-36
2022/08/26 00:26:41;;;;;;;;;;;;;;;24.68;51.77;100965.84;5145214;27;19962;-36
2022/08/26 00:29:08;;;;;;;;;;;;;;;24.67;51.78;100973.38;5140253;27;19953;-36
2022/08/26 00:31:34;;;;;;;;;;;;;;;24.68;51.77;100979.75;5144335;27;19923;-37
2022/08/26 00:34:01;;;;;;;;;;;;;;;24.67;51.88;100984.50;5146619;27;19930;-36
2022/08/26 00:36:27;;;;;;;;;;;;;;;24.69;51.86;100978.59;5139995;27;20304;-36
2022/08/26 00:38:55;;;;;;;;;;;;;;;24.68;51.88;100974.19;5141858;27;19927;-36
2022/08/26 00:41:20;;;;;;;;;;;;;;;24.67;51.86;100981.72;5147648;27;19930;-36
2022/08/26 00:43:46;;;;;;;;;;;;;;;24.67;51.82;100984.50;5143762;27;19924;-36
2022/08/26 00:46:15;;;;;;;;;;;;;;;24.67;51.87;100984.50;5139816;27;19923;-36
2022/08/26 00:48:42;;;;;;;;;;;;;;;24.68;51.91;100993.69;5139588;27;19923;-36
2022/08/26 00:51:10;;;;;;;;;;;;;;;24.67;51.86;100992.88;5142633;27;20311;-36
2022/08/26 00:53:38;;;;;;;;;;;;;;;24.67;51.86;100987.28;5126996;27;20038;-36
2022/08/26 00:56:09;;;;;;;;;;;;;;;24.67;51.83;100984.50;5123720;27;20376;-36
2022/08/26 00:58:41;;;;;;;;;;;;;;;24.67;51.80;100989.25;5127795;27;19923;-36
2022/08/26 01:01:08;;;;;;;;;;;;;;;24.68;51.90;100996.47;5145353;27;19970;-36
2022/08/26 01:03:34;;;;;;;;;;;;;;;24.66;51.91;100991.22;5126796;27;19923;-36
2022/08/26 01:05:59;;;;;;;;;;;;;;;24.67;51.90;100995.66;5140054;27;20048;-36
2022/08/26 01:08:25;;;;;;;;;;;;;;;24.67;51.87;100994.81;5142136;27;19931;-36
2022/08/26 01:10:53;;;;;;;;;;;;;;;24.67;51.85;100984.50;5141119;27;19930;-36
2022/08/26 01:13:21;;;;;;;;;;;;;;;24.67;51.82;100986.47;5118928;27;19923;-36
2022/08/26 01:15:50;;;;;;;;;;;;;;;24.66;51.91;100994.00;5135689;27;19924;-36
2022/08/26 01:18:16;;;;;;;;;;;;;;;24.67;51.86;100998.44;5123275;27;20364;-36
2022/08/26 01:20:47;;;;;;;;;;;;;;;24.66;51.93;100995.97;5136963;27;20358;-36
2022/08/26 01:23:13;;;;;;;;;;;;;;;24.67;51.94;100997.63;5145285;27;19923;-36
2022/08/26 01:25:40;;;;;;;;;;;;;;;24.67;51.84;100989.25;5142990;27;19985;-37
2022/08/26 01:28:09;;;;;;;;;;;;;;;24.67;51.90;101000.41;5123069;27;19934;-36
2022/08/26 01:30:35;;;;;;;;;;;;;;;24.66;51.90;100998.75;5116804;27;19959;-36
2022/08/26 01:33:02;;;;;;;;;;;;;;;24.66;51.93;101002.38;5124489;27;19930;-36
2022/08/26 01:35:29;;;;;;;;;;;;;;;24.66;51.94;100994.00;5122212;27;20381;-36
2022/08/26 01:37:55;;;;;;;;;;;;;;;24.66;51.91;101010.72;5124673;27;19929;-36
2022/08/26 01:40:23;;;;;;;;;;;;;;;24.66;51.88;101010.72;5124012;27;20294;-36
2022/08/26 01:42:48;;;;;;;;;;;;;;;24.67;51.88;101008.75;5122782;27;20270;-36
2022/08/26 01:45:17;;;;;;;;;;;;;;;24.67;51.98;101017.09;5142891;27;19931;-36
2022/08/26 01:47:43;;;;;;;;;;;;;;;24.66;51.98;101012.69;5119039;27;19923;-37
2022/08/26 01:50:10;;;;;;;;;;;;;;;24.65;51.89;101011.84;5141772;27;20388;-36
2022/08/26 01:52:37;;;;;;;;;;;;;;;24.65;51.95;101025.75;5124625;27;19923;-36
2022/08/26 01:55:03;;;;;;;;;;;;;;;24.66;51.93;101027.44;5119604;27;20366;-36
2022/08/26 01:57:29;;;;;;;;;;;;;;;24.66;51.96;101030.22;5141349;27;19942;-36
2022/08/26 01:59:55;;;;;;;;;;;;;;;24.66;51.94;101033.00;5141015;27;19924;-36
2022/08/26 02:02:20;;;;;;;;;;;;;;;24.65;51.95;101025.75;5119677;27;19923;-36
2022/08/26 02:04:47;;;;;;;;;;;;;;;24.65;51.94;101022.97;5144072;27;20316;-36
2022/08/26 02:07:15;;;;;;;;;;;;;;;24.66;51.89;101016.28;5141137;27;19930;-37
2022/08/26 02:09:43;;;;;;;;;;;;;;;24.66;51.91;101035.78;5139592;27;19923;-36
2022/08/26 02:12:09;;;;;;;;;;;;;;;24.65;51.95;101039.69;5144697;27;19930;-36
2022/08/26 02:14:36;;;;;;;;;;;;;;;24.65;51.98;101031.31;5122285;27;19942;-36
2022/08/26 02:17:09;;;;;;;;;;;;;;;24.65;51.95;101039.69;5117195;27;19923;-36
2022/08/26 02:19:36;;;;;;;;;;;;;;;24.65;51.97;101042.47;5141857;27;19931;-36
2022/08/26 02:22:04;;;;;;;;;;;;;;;24.65;51.87;101038.84;5145886;27;19981;-36
2022/08/26 02:24:45;;;;;;;;;;;;;;;24.65;51.95;101042.47;5140769;27;20010;-36
2022/08/26 02:27:12;;;;;;;;;;;;;;;24.65;51.90;101050.81;5125036;27;19963;-36
2022/08/26 02:29:38;;;;;;;;;;;;;;;24.65;51.96;101048.03;5141811;27;20350;-36
2022/08/26 02:32:05;;;;;;;;;;;;;;;24.66;51.92;101048.88;5137714;27;20011;-36
2022/08/26 02:34:31;;;;;;;;;;;;;;;24.65;51.93;101050.00;5120588;27;20015;-36
2022/08/26 02:36:58;;;;;;;;;;;;;;;24.65;51.95;101050.81;5138862;27;19962;-36
2022/08/26 02:39:23;;;;;;;;;;;;;;;24.64;51.98;101051.97;5136877;27;20001;-36
2022/08/26 02:41:49;;;;;;;;;;;;;;;24.64;52.01;101049.19;5118786;27;20370;-36
2022/08/26 02:44:14;;;;;;;;;;;;;;;24.64;51.89;101049.19;5136539;27;19930;-36
2022/08/26 02:46:40;;;;;;;;;;;;;;;24.64;51.98;101046.41;5141519;27;19930;-36
2022/08/26 02:49:06;;;;;;;;;;;;;;;24.65;52.04;101052.78;5137384;27;19931;-36
2022/08/26 02:51:32;;;;;;;;;;;;;;;24.64;51.97;101051.97;5140344;27;19931;-36
2022/08/26 02:53:58;;;;;;;;;;;;;;;24.64;51.94;101057.53;5148445;27;19941;-37
2022/08/26 02:56:24;;;;;;;;;;;;;;;24.64;51.94;101053.94;5141756;27;19925;-36
2022/08/26 02:58:49;;;;;;;;;;;;;;;24.64;51.98;101053.94;5146574;27;19923;-36
2022/08/26 03:01:19;;;;;;;;;;;;;;;24.64;52.01;101049.19;5146837;27;19979;-36
2022/08/26 03:03:47;;;;;;;;;;;;;;;24.64;51.96;101049.19;5125533;27;20010;-37
2022/08/26 03:06:14;;;;;;;;;;;;;;;24.63;51.95;101044.75;5126350;27;19931;-36
2022/08/26 03:08:40;;;;;;;;;;;;;;;24.65;52.03;101055.56;5124806;27;20158;-36
2022/08/26 03:11:07;;;;;;;;;;;;;;;24.64;51.97;101051.97;5141617;27;19923;-36
2022/08/26 03:13:32;;;;;;;;;;;;;;;24.64;52.06;101054.75;5121326;27;19978;-36
2022/08/26 03:16:00;;;;;;;;;;;;;;;24.64;52.06;101049.19;5147430;27;19958;-36
2022/08/26 03:18:26;;;;;;;;;;;;;;;24.64;52.01;101057.53;5126346;27;20377;-36
2022/08/26 03:20:51;;;;;;;;;;;;;;;24.64;52.02;101053.94;5147991;27;19927;-36
2022/08/26 03:23:17;;;;;;;;;;;;;;;24.63;51.98;101055.91;5145128;27;20282;-36
2022/08/26 03:25:47;;;;;;;;;;;;;;;24.64;51.97;101049.19;5141919;27;19936;-36
2022/08/26 03:28:13;;;;;;;;;;;;;;;24.63;52.05;101050.31;5141056;27;19938;-36
2022/08/26 03:30:38;;;;;;;;;;;;;;;24.64;52.05;101051.16;5139592;27;19924;-36
2022/08/26 03:33:10;;;;;;;;;;;;;;;24.64;51.99;101053.94;5148452;27;19961;-36
2022/08/26 03:35:36;;;;;;;;;;;;;;;24.63;51.99;101043.94;5143658;27;19990;-36
2022/08/26 03:38:06;;;;;;;;;;;;;;;24.64;52.03;101053.94;5142867;27;19931;-36
2022/08/26 03:40:33;;;;;;;;;;;;;;;24.64;52.05;101053.94;5146898;27;19923;-36
2022/08/26 03:42:59;;;;;;;;;;;;;;;24.64;52.03;101054.75;5145409;27;20060;-36
2022/08/26 03:45:25;;;;;;;;;;;;;;;24.64;52.05;101053.94;5140339;27;20326;-36
2022/08/26 03:47:50;;;;;;;;;;;;;;;24.64;51.97;101059.50;5140461;27;20492;-36
2022/08/26 03:50:18;;;;;;;;;;;;;;;24.63;51.98;101057.84;5144457;27;19923;-36
2022/08/26 03:52:50;;;;;;;;;;;;;;;24.63;52.08;101052.28;5140400;27;19923;-36
2022/08/26 03:55:16;;;;;;;;;;;;;;;24.63;52.02;101055.91;5142760;27;20379;-36
2022/08/26 03:57:43;;;;;;;;;;;;;;;24.63;52.00;101064.25;5124989;27;20014;-36
2022/08/26 04:00:12;;;;;;;;;;;;;;;24.64;52.00;101056.72;5124545;27;19928;-37
2022/08/26 04:02:38;;;;;;;;;;;;;;;24.63;52.08;101055.06;5142992;27;19963;-36
2022/08/26 04:05:04;;;;;;;;;;;;;;;24.63;52.00;101058.69;5147503;27;19930;-36
2022/08/26 04:07:29;;;;;;;;;;;;;;;24.64;52.02;101062.28;5139223;27;19931;-36
2022/08/26 04:09:57;;;;;;;;;;;;;;;24.63;52.03;101052.28;5147458;27;19930;-36
2022/08/26 04:12:24;;;;;;;;;;;;;;;24.63;52.03;101066.22;5125314;27;20013;-36
2022/08/26 04:14:50;;;;;;;;;;;;;;;24.63;52.07;101055.06;5144256;27;20013;-36
2022/08/26 04:17:19;;;;;;;;;;;;;;;24.62;52.00;101057.03;5142646;27;19971;-36
2022/08/26 04:19:51;;;;;;;;;;;;;;;24.62;52.09;101064.56;5143733;27;19924;-36
2022/08/26 04:22:17;;;;;;;;;;;;;;;24.62;52.05;101068.19;5137163;27;20006;-37
2022/08/26 04:24:50;;;;;;;;;;;;;;;24.63;52.08;101057.84;5137203;27;20369;-36
2022/08/26 04:27:15;;;;;;;;;;;;;;;24.63;52.00;101061.47;5125426;27;19922;-36
2022/08/26 04:29:42;;;;;;;;;;;;;;;24.63;52.03;101057.84;5139000;27;19930;-36
2022/08/26 04:32:08;;;;;;;;;;;;;;;24.63;52.06;101057.84;5144781;27;20014;-36
2022/08/26 04:34:34;;;;;;;;;;;;;;;24.62;51.98;101056.22;5142692;27;19932;-36
2022/08/26 04:37:00;;;;;;;;;;;;;;;24.63;52.10;101055.06;5143755;27;19930;-37
2022/08/26 04:39:26;;;;;;;;;;;;;;;24.62;52.06;101065.41;5129030;27;19931;-36
2022/08/26 04:41:54;;;;;;;;;;;;;;;24.62;52.04;101056.22;5125501;27;20006;-36
2022/08/26 04:44:20;;;;;;;;;;;;;;;24.62;52.03;101064.56;5143916;27;19970;-36
2022/08/26 04:46:46;;;;;;;;;;;;;;;24.62;51.99;101070.97;5115704;27;20262;-36
2022/08/26 04:49:12;;;;;;;;;;;;;;;24.63;52.00;101060.66;5141653;27;19931;-36
2022/08/26 04:51:38;;;;;;;;;;;;;;;24.62;51.98;101061.78;5141522;27;19949;-36
2022/08/26 04:54:05;;;;;;;;;;;;;;;24.64;52.04;101071.47;5119733;27;20365;-38
2022/08/26 04:56:33;;;;;;;;;;;;;;;24.63;52.03;101071.78;5125832;27;20018;-36
2022/08/26 04:58:59;;;;;;;;;;;;;;;24.63;52.07;101078.16;5120083;27;20038;-36
2022/08/26 05:01:25;;;;;;;;;;;;;;;24.64;52.02;101073.41;5141513;27;20354;-38
2022/08/26 05:03:51;;;;;;;;;;;;;;;24.63;52.02;101072.59;5140472;27;19927;-38
2022/08/26 05:06:18;;;;;;;;;;;;;;;24.63;52.08;101075.38;5141139;27;20007;-38
2022/08/26 05:08:44;;;;;;;;;;;;;;;24.63;51.97;101074.56;5140996;27;20057;-38
2022/08/26 05:11:10;;;;;;;;;;;;;;;24.62;52.04;101075.72;5142110;27;20077;-39
2022/08/26 05:13:37;;;;;;;;;;;;;;;24.62;52.05;101084.88;5138857;27;20445;-39
2022/08/26 05:16:03;;;;;;;;;;;;;;;24.61;52.09;101082.41;5117725;27;20404;-38
2022/08/26 05:18:32;;;;;;;;;;;;;;;24.62;52.05;101079.31;5142035;27;19956;-38
2022/08/26 05:20:57;;;;;;;;;;;;;;;24.61;51.98;101077.69;5139885;27;19923;-39
2022/08/26 05:23:23;;;;;;;;;;;;;;;24.61;52.00;101088.81;5141823;27;19930;-38
2022/08/26 05:25:49;;;;;;;;;;;;;;;24.61;52.06;101074.03;5121461;27;20337;-39
2022/08/26 05:28:15;;;;;;;;;;;;;;;24.61;52.05;101080.47;5141132;27;20369;-38
2022/08/26 05:30:41;;;;;;;;;;;;;;;24.61;52.06;101077.69;5142631;27;19930;-38
2022/08/26 05:33:09;;;;;;;;;;;;;;;24.62;52.09;101079.31;5145253;27;19931;-38
2022/08/26 05:35:37;;;;;;;;;;;;;;;24.63;52.07;101083.75;5121687;27;19975;-38
2022/08/26 05:38:04;;;;;;;;;;;;;;;24.62;52.06;101082.09;5139219;27;20013;-38
2022/08/26 05:40:32;;;;;;;;;;;;;;;24.62;52.09;101084.06;5118170;27;20037;-39
2022/08/26 05:42:59;;;;;;;;;;;;;;;24.62;52.07;101081.28;5139617;27;19934;-39
2022/08/26 05:45:24;;;;;;;;;;;;;;;24.62;52.11;101084.06;5138620;27;19931;-40
2022/08/26 05:47:50;;;;;;;;;;;;;;;24.62;52.16;101086.84;5121354;27;20246;-39
2022/08/26 05:50:20;;;;;;;;;;;;;;;24.62;52.08;101081.28;5136151;27;19942;-40
2022/08/26 05:52:48;;;;;;;;;;;;;;;24.61;52.08;101085.19;5140794;27;19936;-39
2022/08/26 05:55:14;;;;;;;;;;;;;;;24.61;52.11;101091.59;5120826;27;19931;-40
2022/08/26 05:57:41;;;;;;;;;;;;;;;24.63;52.16;101091.28;5132281;27;19931;-40
2022/08/26 06:00:09;;;;;;;;;;;;;;;24.64;52.05;101096.50;5131209;27;19927;-40
2022/08/26 06:02:34;;;;;;;;;;;;;;;24.64;52.06;101093.72;5134431;27;19923;-39
2022/08/26 06:05:00;;;;;;;;;;;;;;;24.64;52.05;101090.94;5133387;27;19923;-39
2022/08/26 06:10:12;;;;;;;;;;;;;;;24.65;52.25;101097.34;5118216;27;19951;-41
2022/08/26 06:12:58;;;;;;;;;;;;;;;24.62;52.13;101090.44;5120601;27;19923;-40
2022/08/26 06:15:24;;;;;;;;;;;;;;;24.64;52.10;101090.94;5115598;27;20015;-39
2022/08/26 06:17:50;;;;;;;;;;;;;;;24.62;52.17;101090.44;5133636;27;20340;-39
2022/08/26 06:20:15;;;;;;;;;;;;;;;24.63;52.23;101088.50;5137769;27;20062;-40
2022/08/26 06:25:36;;;;;;;;;;;;;;;24.63;52.26;101094.06;5121258;27;19924;-38
2022/08/26 06:28:04;;;;;;;;;;;;;;;24.62;52.32;101098.00;5136815;27;19955;-38
2022/08/26 06:30:29;;;;;;;;;;;;;;;24.63;52.23;101096.84;5118859;27;20026;-38
2022/08/26 06:32:55;;;;;;;;;;;;;;;24.62;52.30;101098.00;5134811;27;19962;-39
2022/08/26 06:35:23;;;;;;;;;;;;;;;24.62;52.32;101106.34;5142476;27;20010;-39
2022/08/26 06:37:49;;;;;;;;;;;;;;;24.63;52.30;101110.75;5138082;27;19934;-38
2022/08/26 06:40:14;;;;;;;;;;;;;;;24.63;56.20;101107.97;5136488;27;19931;-39
2022/08/26 06:42:40;;;;;;;;;;;;;;;24.66;54.21;101107.38;5141761;27;20361;-39
2022/08/26 06:45:06;;;;;;;;;;;;;;;24.65;53.63;101117.66;5139144;27;19979;-39
2022/08/26 06:47:32;;;;;;;;;;;;;;;24.64;53.32;101110.44;5139125;27;19983;-39
2022/08/26 06:49:59;;;;;;;;;;;;;;;24.65;53.35;101112.09;5129611;27;19995;-42
2022/08/26 06:52:24;;;;;;;;;;;;;;;24.59;57.95;101113.34;5136767;27;20377;-40
2022/08/26 06:54:50;;;;;;;;;;;;;;;24.55;58.66;101115.09;5139690;27;19923;-38
2022/08/26 06:57:16;;;;;;;;;;;;;;;24.61;57.20;101116.66;5134064;27;19927;-37
2022/08/26 06:59:42;;;;;;;;;;;;;;;24.67;56.21;101114.56;5134854;27;19938;-37
2022/08/26 07:02:07;;;;;;;;;;;;;;;24.68;55.68;101122.59;5132927;27;19931;-40
2022/08/26 07:04:33;;;;;;;;;;;;;;;24.69;55.69;101117.84;5135960;27;19980;-37
2022/08/26 07:07:01;;;;;;;;;;;;;;;24.69;54.99;101123.41;5116036;27;19987;-37
2022/08/26 07:09:28;;;;;;;;;;;;;;;24.69;54.63;101121.47;5137430;27;19927;-37
2022/08/26 07:11:55;;;;;;;;;;;;;;;24.70;54.50;101125.91;5120884;27;20022;-37
2022/08/26 07:14:20;;;;;;;;;;;;;;;24.70;54.52;101117.56;5142923;27;19965;-37
2022/08/26 07:16:46;;;;;;;;;;;;;;;24.70;54.31;101123.13;5118356;27;19942;-37
2022/08/26 07:19:12;;;;;;;;;;;;;;;24.70;54.30;101125.91;5121524;27;19930;-37
2022/08/26 07:21:40;;;;;;;;;;;;;;;24.70;54.41;101128.69;5143062;27;19923;-38
2022/08/26 07:24:06;;;;;;;;;;;;;;;24.72;54.38;101133.94;5138418;27;20033;-37
2022/08/26 07:26:31;;;;;;;;;;;;;;;24.72;54.27;101128.38;5140397;27;19924;-37
2022/08/26 07:28:58;;;;;;;;;;;;;;;24.72;54.25;101131.16;5139428;27;19923;-37
2022/08/26 07:31:25;;;;;;;;;;;;;;;24.71;54.50;101137.88;5140146;27;19931;-37
2022/08/26 07:33:51;;;;;;;;;;;;;;;24.74;54.73;101140.00;5143039;27;19968;-37
2022/08/26 07:36:17;;;;;;;;;;;;;;;24.73;54.71;101147.53;5136530;27;19936;-37
2022/08/26 07:38:43;;;;;;;;;;;;;;;24.74;54.82;101145.59;5140390;27;20385;-37
2022/08/26 07:41:09;;;;;;;;;;;;;;;24.75;54.63;101147.25;5119571;27;19976;-37
2022/08/26 07:43:34;;;;;;;;;;;;;;;24.75;54.76;101144.47;5139055;27;20309;-37
2022/08/26 07:46:00;;;;;;;;;;;;;;;24.75;55.24;101142.50;5138046;27;19954;-37
2022/08/26 07:48:26;;;;;;;;;;;;;;;24.77;54.99;101150.53;5120164;27;19931;-37
2022/08/26 07:50:52;;;;;;;;;;;;;;;24.77;54.80;101153.31;5137127;27;20350;-37
2022/08/26 07:53:18;;;;;;;;;;;;;;;24.75;54.75;101156.44;5136702;27;19923;-37
2022/08/26 07:55:44;;;;;;;;;;;;;;;24.76;55.07;101149.72;5117693;27;20343;-38
2022/08/26 07:58:10;;;;;;;;;;;;;;;24.75;54.85;101156.44;5140920;27;19972;-37
2022/08/26 08:00:36;;;;;;;;;;;;;;;24.76;54.85;101158.06;5135598;27;19931;-38
2022/08/26 08:03:02;;;;;;;;;;;;;;;24.68;56.09;101157.97;5136644;27;19984;-39
2022/08/26 08:05:31;;;;;;;;;;;;;;;24.74;55.17;101154.78;5118661;27;19935;-41
2022/08/26 08:08:00;;;;;;;;;;;;;;;24.78;55.04;101154.97;5115526;27;20626;-38
2022/08/26 08:10:46;;;;;;;;;;;;;;;24.79;55.11;101156.63;5118936;27;19923;-38
2022/08/26 08:13:14;;;;;;;;;;;;;;;24.78;54.81;101155.81;5118752;27;20369;-38
2022/08/26 08:15:40;;;;;;;;;;;;;;;24.79;55.03;101156.63;5133187;27;19934;-41
2022/08/26 08:18:07;;;;;;;;;;;;;;;24.79;54.75;101159.41;5132416;27;19972;-39
2022/08/26 08:20:40;;;;;;;;;;;;;;;24.79;54.58;101159.41;5120463;27;19931;-39
2022/08/26 08:23:14;;;;;;;;;;;;;;;24.82;56.39;101160.72;5134187;27;19931;-39
2022/08/26 08:25:40;;;;;;;;;;;;;;;24.82;55.42;101157.94;5116789;27;20010;-39
2022/08/26 08:28:05;;;;;;;;;;;;;;;24.83;55.51;101157.66;5132789;27;19939;-38
2022/08/26 08:30:31;;;;;;;;;;;;;;;24.84;55.64;101164.03;5132869;27;20276;-41
2022/08/26 08:33:02;;;;;;;;;;;;;;;24.82;55.21;101167.13;5133928;27;19938;-38
2022/08/26 08:35:27;;;;;;;;;;;;;;;24.84;55.34;101161.25;5136424;27;19923;-42
2022/08/26 08:37:55;;;;;;;;;;;;;;;24.87;55.19;101168.97;5129798;27;19938;-39
2022/08/26 08:40:23;;;;;;;;;;;;;;;24.87;54.99;101171.75;5130276;27;19957;-39
2022/08/26 08:45:37;;;;;;;;;;;;;;;24.85;55.28;101163.72;5150102;27;19929;-37
2022/08/26 08:48:04;;;;;;;;;;;;;;;24.84;55.24;101173.22;5153483;27;19927;-37
2022/08/26 08:50:32;;;;;;;;;;;;;;;24.84;55.40;101164.88;5140876;27;19929;-38
2022/08/26 08:53:19;;;;;;;;;;;;;;;24.84;55.42;101164.88;5136407;27;20006;-37
2022/08/26 08:55:50;;;;;;;;;;;;;;;24.85;55.40;101158.16;5135963;27;20011;-38
2022/08/26 08:58:17;;;;;;;;;;;;;;;24.84;55.32;101162.06;5130340;27;20250;-37
2022/08/26 09:00:54;;;;;;;;;;;;;;;24.85;55.26;101163.72;5132391;27;19931;-37
2022/08/26 09:03:22;;;;;;;;;;;;;;;24.85;55.15;101162.91;5154675;27;20013;-36
2022/08/26 09:05:50;;;;;;;;;;;;;;;24.86;55.11;101161.75;5156031;27;19978;-37
2022/08/26 09:08:18;;;;;;;;;;;;;;;24.86;55.28;101161.75;5151312;27;20022;-37
2022/08/26 09:10:46;;;;;;;;;;;;;;;24.85;55.16;101169.28;5134897;27;19931;-37
2022/08/26 09:13:13;;;;;;;;;;;;;;;24.87;55.21;101174.53;5139554;27;20452;-36
2022/08/26 09:15:55;;;;;;;;;;;;;;;24.87;55.04;101169.81;5140124;27;19923;-37
2022/08/26 09:18:40;;;;;;;;;;;;;;;24.86;55.12;101165.34;5158225;27;20006;-36
2022/08/26 09:21:12;;;;;;;;;;;;;;;24.87;55.15;101164.25;5142961;27;19923;-36
2022/08/26 09:23:38;;;;;;;;;;;;;;;24.88;55.19;101176.22;5157669;27;20034;-37
2022/08/26 09:26:26;;;;;;;;;;;;;;;24.88;55.10;101171.47;5134176;27;21208;-37
2022/08/26 09:28:57;;;;;;;;;;;;;;;24.88;55.20;101170.63;5139342;27;19922;-37
2022/08/26 09:31:23;;;;;;;;;;;;;;;24.88;55.04;101185.38;5131800;27;20069;-37
2022/08/26 09:34:02;;;;;;;;;;;;;;;24.89;55.05;101177.84;5156978;27;20288;-38
2022/08/26 09:36:33;;;;;;;;;;;;;;;24.91;54.94;101181.13;5133751;27;19933;-40
2022/08/26 09:39:24;;;;;;;;;;;;;;;24.91;54.91;101176.38;5148850;27;19949;-41
2022/08/26 09:42:00;;;;;;;;;;;;;;;24.90;54.86;101180.31;5137061;27;19934;-39
2022/08/26 09:44:25;;;;;;;;;;;;;;;24.91;55.00;101186.69;5115245;27;19923;-39
2022/08/26 09:46:53;;;;;;;;;;;;;;;24.91;55.00;101183.91;5125537;27;19976;-41
2022/08/26 09:49:33;;;;;;;;;;;;;;;24.91;54.91;101181.13;5112162;27;19954;-39
2022/08/26 09:54:43;;;;;;;;;;;;;;;24.89;55.58;101177.84;5155967;27;21296;-36
2022/08/26 09:57:20;;;;;;;;;;;;;;;24.90;54.97;101179.50;5142144;27;19957;-39
2022/08/26 09:59:45;;;;;;;;;;;;;;;24.91;54.99;101178.34;5125281;27;20370;-39
2022/08/26 10:02:31;;;;;;;;;;;;;;;24.89;54.86;101178.66;5139444;27;19923;-39
2022/08/26 10:04:56;;;;;;;;;;;;;;;24.91;55.09;101175.56;5122859;27;20002;-39
2022/08/26 10:07:45;;;;;;;;;;;;;;;24.90;55.13;101174.75;5140487;27;19968;-39
2022/08/26 10:10:13;;;;;;;;;;;;;;;24.90;55.07;101177.53;5118519;27;20058;-39
2022/08/26 10:12:42;;;;;;;;;;;;;;;24.91;55.33;101176.38;5120580;27;20372;-39
2022/08/26 10:15:08;;;;;;;;;;;;;;;24.91;55.17;101176.38;5136776;27;20616;-39
2022/08/26 10:17:35;;;;;;;;;;;;;;;24.92;54.99;101171.66;5137221;27;19935;-39
2022/08/26 10:22:42;;;;;;;;;;;;;;;24.91;54.84;101173.59;5161970;27;19934;-36
2022/08/26 10:25:10;;;;;;;;;;;;;;;24.92;54.88;101171.66;5128973;27;19974;-37
2022/08/26 10:27:56;;;;;;;;;;;;;;;24.93;54.84;101170.50;5121429;27;19975;-38
2022/08/26 10:30:23;;;;;;;;;;;;;;;24.92;54.75;101169.69;5118229;27;20013;-37
2022/08/26 10:32:53;;;;;;;;;;;;;;;24.93;54.75;101167.72;5136627;27;19949;-37
2022/08/26 10:35:19;;;;;;;;;;;;;;;24.90;55.32;101169.16;5137927;27;20026;-41
2022/08/26 10:37:48;;;;;;;;;;;;;;;24.68;56.09;101175.50;5135966;27;19934;-40
2022/08/26 10:40:17;;;;;;;;;;;;;;;24.84;55.67;101175.19;5131334;27;20289;-39
2022/08/26 10:42:46;;;;;;;;;;;;;;;24.91;55.28;101172.78;5123817;27;19927;-40
2022/08/26 10:45:21;;;;;;;;;;;;;;;24.88;55.63;101168.66;5119558;27;19978;-40
2022/08/26 10:47:53;;;;;;;;;;;;;;;24.94;55.31;101152.66;5121612;27;19924;-40
2022/08/26 10:50:19;;;;;;;;;;;;;;;24.96;55.21;101153.19;5133896;27;20022;-41
2022/08/26 10:52:57;;;;;;;;;;;;;;;24.95;55.16;101157.06;5120748;27;19931;-39
2022/08/26 10:55:42;;;;;;;;;;;;;;;24.95;54.98;101154.28;5135103;27;20037;-39
2022/08/26 10:58:19;;;;;;;;;;;;;;;24.95;55.27;101155.09;5119555;27;19924;-39
2022/08/26 11:03:48;;;;;;;;;;;;;;;24.96;55.01;101153.19;5118189;27;19923;-40
2022/08/26 11:06:19;;;;;;;;;;;;;;;24.95;55.17;101149.53;5131666;27;19931;-40
2022/08/26 11:08:45;;;;;;;;;;;;;;;24.96;55.16;101156.78;5138273;27;20433;-39
2022/08/26 11:11:11;;;;;;;;;;;;;;;24.97;55.08;101160.38;5137201;27;20021;-39
2022/08/26 11:13:56;;;;;;;;;;;;;;;24.97;55.12;101154.81;5132852;27;20055;-40
2022/08/26 11:16:39;;;;;;;;;;;;;;;24.98;55.12;101156.47;5118552;27;20052;-39
2022/08/26 11:19:10;;;;;;;;;;;;;;;24.98;55.02;101151.69;5137851;27;19938;-39
2022/08/26 11:21:42;;;;;;;;;;;;;;;24.97;55.02;101152.03;5115329;27;19946;-39
2022/08/26 11:24:30;;;;;;;;;;;;;;;24.97;54.94;101147.28;5135451;27;19931;-41
2022/08/26 11:26:56;;;;;;;;;;;;;;;24.99;55.02;101149.75;5138991;27;20433;-39
2022/08/26 11:29:42;;;;;;;;;;;;;;;24.98;54.82;101151.69;5135131;27;19930;-39
2022/08/26 11:32:15;;;;;;;;;;;;;;;24.99;54.86;101156.13;5116325;27;20017;-47
2022/08/26 11:34:50;;;;;;;;;;;;;;;25.01;54.83;101148.28;5127600;27;19931;-40
2022/08/26 11:37:16;;;;;;;;;;;;;;;25.02;54.93;101152.72;5123554;27;19923;-40
2022/08/26 11:39:47;;;;;;;;;;;;;;;25.02;55.01;101154.69;5124663;27;19993;-40
2022/08/26 11:42:40;;;;;;;;;;;;;;;25.03;54.79;101148.78;5126641;27;20395;-40
2022/08/26 11:45:26;;;;;;;;;;;;;;;25.02;54.76;101146.34;5099074;28;19974;-40
2022/08/26 11:47:54;;;;;;;;;;;;;;;25.04;54.69;101144.03;5102780;28;19932;-40
2022/08/26 11:50:22;;;;;;;;;;;;;;;25.03;54.71;101146.00;5113764;28;20349;-40
2022/08/26 11:52:50;;;;;;;;;;;;;;;25.03;54.60;101146.00;5112424;27;20014;-42
2022/08/26 11:55:16;;;;;;;;;;;;;;;25.01;54.76;101142.72;5117962;28;19973;-41
2022/08/26 11:57:45;;;;;;;;;;;;;;;25.01;54.74;101145.50;5118303;27;19939;-41
2022/08/26 12:00:19;;;;;;;;;;;;;;;25.02;54.68;101151.91;5098985;28;20022;-40
2022/08/26 12:02:48;;;;;;;;;;;;;;;25.01;54.58;101145.50;5119416;28;19931;-41
2022/08/26 12:05:16;;;;;;;;;;;;;;;25.02;54.91;101147.16;5116828;28;20270;-41
2022/08/26 12:07:41;;;;;;;;;;;;;;;25.01;54.56;101141.91;5117418;28;20006;-40
2022/08/26 12:10:08;;;;;;;;;;;;;;;25.01;54.43;101148.28;5119936;28;19935;-40
2022/08/26 12:12:37;;;;;;;;;;;;;;;25.00;54.37;101152.22;5121089;28;19928;-40
2022/08/26 12:15:04;;;;;;;;;;;;;;;25.01;54.24;101150.25;5118412;28;20014;-41
2022/08/26 12:17:30;;;;;;;;;;;;;;;25.00;54.44;101148.63;5122326;28;19946;-40
2022/08/26 12:19:56;;;;;;;;;;;;;;;24.98;54.37;101146.13;5120346;28;20401;-41
2022/08/26 12:22:23;;;;;;;;;;;;;;;24.99;54.52;101147.78;5120974;27;19942;-41
2022/08/26 12:24:51;;;;;;;;;;;;;;;24.99;54.56;101147.78;5095924;28;20311;-42
2022/08/26 12:27:20;;;;;;;;;;;;;;;24.99;54.54;101149.75;5097944;28;19923;-41
2022/08/26 12:30:03;;;;;;;;;;;;;;;25.00;54.62;101156.97;5100981;28;20121;-40
2022/08/26 12:32:33;;;;;;;;;;;;;;;24.99;54.60;101149.75;5119144;28;19938;-40
2022/08/26 12:35:01;;;;;;;;;;;;;;;24.99;54.57;101149.75;5120143;28;19966;-40
2022/08/26 12:37:26;;;;;;;;;;;;;;;24.99;54.71;101158.09;5118237;28;19923;-40
2022/08/26 12:39:53;;;;;;;;;;;;;;;24.98;54.56;101162.03;5099704;28;19923;-40
2022/08/26 12:44:58;;;;;;;;;;;;;;;24.98;54.81;101165.63;5172225;27;20025;-37
2022/08/26 12:47:26;;;;;;;;;;;;;;;24.98;54.71;101157.28;5135360;27;20060;-39
2022/08/26 12:50:11;;;;;;;;;;;;;;;25.00;54.88;101159.78;5136785;27;19938;-37
2022/08/26 12:52:57;;;;;;;;;;;;;;;24.98;54.60;101162.84;5155876;27;19962;-38
2022/08/26 12:55:25;;;;;;;;;;;;;;;24.98;54.81;101156.47;5138548;27;19986;-39
2022/08/26 12:58:09;;;;;;;;;;;;;;;24.98;54.55;101159.25;5138046;27;20039;-37
2022/08/26 13:00:36;;;;;;;;;;;;;;;24.97;54.35;101164.00;5135584;27;19930;-39
2022/08/26 13:03:02;;;;;;;;;;;;;;;24.98;54.82;101160.06;5152832;27;20346;-37